createdAt,value
2023-05-06T00:02:35.436Z,2.40
2023-05-06T00:05:21.860Z,2.22
2023-05-06T00:08:07.834Z,2.10
2023-05-06T00:10:53.959Z,2.60
2023-05-06T00:13:39.907Z,2.10
2023-05-06T00:16:25.948Z,2.42
2023-05-06T00:19:12.584Z,2.55
2023-05-06T00:21:59.098Z,2.33
2023-05-06T00:24:45.276Z,2.20
2023-05-06T00:27:31.767Z,2.38
2023-05-06T00:30:17.625Z,2.20
2023-05-06T00:33:03.820Z,2.33
2023-05-06T00:35:51.961Z,2.08
2023-05-06T00:38:38.100Z,2.30
2023-05-06T00:41:24.235Z,2.30
2023-05-06T00:44:10.296Z,2.60
2023-05-06T00:47:00.869Z,2.25
2023-05-06T00:49:48.513Z,2.55
2023-05-06T00:52:34.914Z,2.58
2023-05-06T00:55:22.093Z,2.83
2023-05-06T00:58:08.872Z,2.58
2023-05-06T01:00:55.396Z,2.83
2023-05-06T01:03:42.237Z,2.65
2023-05-06T01:06:42.644Z,2.28
2023-05-06T01:09:36.948Z,2.38
2023-05-06T01:12:46.110Z,3.40
2023-05-06T01:15:45.979Z,2.40
2023-05-06T01:18:33.858Z,2.35
2023-05-06T01:21:22.065Z,2.45
2023-05-06T01:24:08.553Z,2.70
2023-05-06T01:26:54.708Z,2.72
2023-05-06T01:29:44.187Z,2.55
2023-05-06T01:32:48.948Z,2.60
2023-05-06T01:35:34.779Z,2.67
2023-05-06T01:38:27.854Z,2.53
2023-05-06T01:41:16.792Z,2.30
2023-05-06T01:44:05.856Z,2.45
2023-05-06T01:46:55.311Z,2.80
2023-05-06T01:49:41.409Z,2.45
2023-05-06T01:52:27.667Z,2.65
2023-05-06T01:55:13.496Z,2.42
2023-05-06T01:57:59.507Z,2.35
2023-05-06T02:00:45.489Z,2.38
2023-05-06T02:06:18.094Z,2.40
2023-05-06T02:09:04.245Z,2.40
2023-05-06T02:11:53.184Z,2.53
2023-05-06T02:14:39.178Z,2.80
2023-05-06T02:17:25.590Z,2.45
2023-05-06T02:20:11.879Z,2.30
2023-05-06T02:22:57.863Z,2.55
2023-05-06T02:25:43.780Z,2.47
2023-05-06T02:28:29.931Z,2.63
2023-05-06T02:31:16.711Z,2.38
2023-05-06T02:34:03.133Z,2.70
2023-05-06T02:36:49.038Z,2.60
2023-05-06T02:39:35.008Z,2.70
2023-05-06T02:42:21.344Z,2.92
2023-05-06T02:45:08.481Z,2.80
2023-05-06T02:47:55.257Z,2.80
2023-05-06T02:50:41.500Z,2.83
2023-05-06T02:53:27.530Z,3.40
2023-05-06T02:56:13.385Z,2.67
2023-05-06T02:58:59.308Z,2.70
2023-05-06T03:01:45.361Z,3.20
2023-05-06T03:04:31.286Z,2.60
2023-05-06T03:07:17.781Z,2.50
2023-05-06T03:10:05.022Z,2.83
2023-05-06T03:12:54.320Z,3.03
2023-05-06T03:15:41.472Z,2.88
2023-05-06T03:18:27.861Z,2.88
2023-05-06T03:21:14.340Z,3.22
2023-05-06T03:24:02.009Z,3.00
2023-05-06T03:26:49.546Z,2.92
2023-05-06T03:29:35.488Z,3.35
2023-05-06T03:32:22.476Z,2.78
2023-05-06T03:35:11.481Z,3.00
2023-05-06T03:37:58.736Z,2.90
2023-05-06T03:40:49.955Z,2.90
2023-05-06T03:43:37.346Z,2.90
2023-05-06T03:46:24.880Z,2.88
2023-05-06T03:49:11.856Z,2.72
2023-05-06T03:51:58.839Z,2.78
2023-05-06T03:54:46.078Z,3.08
2023-05-06T03:57:33.020Z,2.95
2023-05-06T04:00:20.297Z,2.85
2023-05-06T04:03:11.106Z,2.75
2023-05-06T04:06:03.592Z,2.40
2023-05-06T04:08:49.726Z,2.88
2023-05-06T04:11:37.524Z,2.88
2023-05-06T04:14:25.818Z,2.70
2023-05-06T04:17:12.211Z,2.70
2023-05-06T04:19:58.516Z,2.67
2023-05-06T04:22:44.517Z,2.65
2023-05-06T04:25:30.914Z,3.10
2023-05-06T04:28:17.965Z,2.80
2023-05-06T04:31:08.697Z,3.05
2023-05-06T04:36:47.886Z,2.83
2023-05-06T04:39:42.304Z,2.80
2023-05-06T04:42:28.082Z,3.00
2023-05-06T04:45:26.072Z,3.08
2023-05-06T04:48:13.613Z,2.75
2023-05-06T04:51:00.665Z,2.83
2023-05-06T04:53:47.038Z,2.67
2023-05-06T04:56:33.742Z,2.90
2023-05-06T04:59:19.658Z,3.03
2023-05-06T05:02:06.709Z,2.47
2023-05-06T05:04:53.087Z,2.90
2023-05-06T05:07:40.010Z,2.92
2023-05-06T05:10:26.260Z,3.00
2023-05-06T05:13:14.176Z,3.00
2023-05-06T05:16:01.561Z,2.95
2023-05-06T05:18:50.719Z,3.20
2023-05-06T05:21:41.972Z,3.20
2023-05-06T05:24:30.610Z,3.45
2023-05-06T05:27:16.929Z,3.47
2023-05-06T05:30:03.969Z,3.25
2023-05-06T05:32:52.937Z,3.22
2023-05-06T05:35:39.412Z,3.38
2023-05-06T05:38:25.838Z,3.22
2023-05-06T05:41:12.389Z,3.08
2023-05-06T05:43:58.910Z,3.15
2023-05-06T05:46:46.410Z,3.47
2023-05-06T05:49:36.128Z,3.13
2023-05-06T05:52:22.220Z,3.30
2023-05-06T05:55:09.400Z,3.00
2023-05-06T05:57:57.045Z,3.20
2023-05-06T06:00:44.973Z,3.17
2023-05-06T06:03:34.655Z,3.20
2023-05-06T06:06:20.738Z,4.05
2023-05-06T06:09:07.445Z,3.50
2023-05-06T06:11:56.275Z,3.42
2023-05-06T06:14:47.959Z,3.13
2023-05-06T06:17:36.880Z,3.38
2023-05-06T06:20:25.388Z,3.42
2023-05-06T06:23:12.427Z,3.42
2023-05-06T06:25:58.852Z,3.30
2023-05-06T06:28:45.273Z,3.40
2023-05-06T06:31:33.878Z,3.38
2023-05-06T06:34:20.172Z,3.60
2023-05-06T06:37:07.932Z,4.07
2023-05-06T06:39:54.266Z,4.22
2023-05-06T06:42:40.673Z,3.92
2023-05-06T06:45:48.009Z,3.70
2023-05-06T06:48:34.346Z,4.22
2023-05-06T06:51:20.171Z,4.50
2023-05-06T06:54:06.776Z,4.55
2023-05-06T06:56:57.404Z,4.15
2023-05-06T06:59:43.859Z,4.25
2023-05-06T07:02:29.712Z,4.35
2023-05-06T07:05:15.894Z,4.55
2023-05-06T07:08:02.173Z,4.47
2023-05-06T07:10:48.447Z,4.63
2023-05-06T07:16:20.871Z,5.13
2023-05-06T07:19:07.433Z,5.22
2023-05-06T07:21:53.747Z,5.13
2023-05-06T07:24:39.631Z,4.70
2023-05-06T07:27:27.355Z,5.18
2023-05-06T07:30:14.136Z,4.45
2023-05-06T07:33:00.015Z,4.30
2023-05-06T07:35:46.495Z,4.65
2023-05-06T07:38:32.528Z,4.53
2023-05-06T07:41:18.699Z,4.65
2023-05-06T07:46:51.741Z,4.30
2023-05-06T07:49:37.761Z,4.22
2023-05-06T07:52:24.653Z,3.67
2023-05-06T07:55:11.195Z,4.35
2023-05-06T07:57:57.633Z,4.40
2023-05-06T08:00:43.747Z,4.35
2023-05-06T08:06:16.697Z,4.28
2023-05-06T08:09:02.899Z,3.65
2023-05-06T08:11:50.688Z,3.88
2023-05-06T08:14:37.274Z,4.28
2023-05-06T08:17:23.721Z,4.93
2023-05-06T08:20:10.691Z,4.45
2023-05-06T08:22:56.683Z,4.22
2023-05-06T08:25:42.992Z,4.38
2023-05-06T08:28:29.379Z,4.13
2023-05-06T08:31:15.356Z,4.50
2023-05-06T08:34:01.672Z,4.35
2023-05-06T08:36:49.353Z,3.97
2023-05-06T08:39:35.380Z,3.95
2023-05-06T08:42:23.715Z,4.25
2023-05-06T08:45:11.305Z,4.40
2023-05-06T08:47:57.839Z,4.68
2023-05-06T08:50:44.332Z,4.55
2023-05-06T08:53:33.732Z,4.30
2023-05-06T08:56:22.005Z,4.30
2023-05-06T08:59:09.517Z,4.30
2023-05-06T09:01:55.740Z,4.05
2023-05-06T09:04:42.565Z,4.10
2023-05-06T09:07:28.731Z,3.92
2023-05-06T09:10:15.198Z,3.75
2023-05-06T09:13:01.071Z,3.70
2023-05-06T09:15:48.805Z,3.75
2023-05-06T09:18:37.386Z,3.90
2023-05-06T09:21:32.585Z,3.58
2023-05-06T09:24:18.999Z,3.88
2023-05-06T09:27:05.104Z,4.07
2023-05-06T09:32:54.698Z,3.75
2023-05-06T09:35:43.376Z,3.67
2023-05-06T09:38:29.468Z,3.40
2023-05-06T09:41:16.907Z,3.53
2023-05-06T09:44:03.694Z,3.67
2023-05-06T09:46:50.736Z,3.50
2023-05-06T09:49:37.115Z,3.40
2023-05-06T09:52:23.488Z,3.28
2023-05-06T09:55:11.897Z,3.08
2023-05-06T09:57:59.264Z,2.67
2023-05-06T10:00:46.744Z,2.60
2023-05-06T10:03:33.896Z,2.40
2023-05-06T10:06:24.169Z,2.90
2023-05-06T10:09:10.852Z,2.38
2023-05-06T10:11:58.876Z,2.58
2023-05-06T10:14:45.051Z,2.60
2023-05-06T10:17:32.737Z,2.42
2023-05-06T10:20:21.283Z,2.78
2023-05-06T10:23:35.986Z,2.40
2023-05-06T10:26:23.195Z,2.30
2023-05-06T10:29:10.885Z,2.42
2023-05-06T10:31:59.674Z,2.35
2023-05-06T10:34:55.270Z,2.60
2023-05-06T10:37:42.762Z,2.75
2023-05-06T10:40:29.255Z,2.38
2023-05-06T10:43:32.663Z,2.53
2023-05-06T10:46:19.190Z,2.83
2023-05-06T10:52:14.042Z,2.63
2023-05-06T10:55:00.009Z,2.70
2023-05-06T10:57:46.064Z,2.85
2023-05-06T11:03:23.653Z,3.03
2023-05-06T11:06:10.357Z,2.70
2023-05-06T11:08:58.350Z,2.42
2023-05-06T11:11:48.301Z,2.50
2023-05-06T11:14:38.551Z,2.47
2023-05-06T11:17:33.058Z,2.78
2023-05-06T11:20:20.114Z,2.63
2023-05-06T11:23:06.559Z,2.80
2023-05-06T11:25:53.910Z,2.42
2023-05-06T11:28:43.393Z,2.60
2023-05-06T11:31:36.109Z,2.50
2023-05-06T11:34:24.604Z,2.55
2023-05-06T11:37:11.227Z,2.97
2023-05-06T11:39:57.202Z,2.78
2023-05-06T11:42:43.318Z,3.05
2023-05-06T11:45:47.861Z,2.30
2023-05-06T11:48:33.929Z,2.10
2023-05-06T11:51:23.465Z,2.50
2023-05-06T11:54:10.614Z,2.50
2023-05-06T11:56:57.294Z,2.60
2023-05-06T11:59:43.622Z,2.53
2023-05-06T12:02:29.749Z,2.40
2023-05-06T12:05:16.090Z,2.33
2023-05-06T12:08:02.223Z,2.80
2023-05-06T12:10:50.782Z,2.45
2023-05-06T12:13:37.897Z,2.53
2023-05-06T12:16:25.691Z,2.75
2023-05-06T12:19:11.845Z,2.72
2023-05-06T12:22:18.033Z,2.70
2023-05-06T12:25:14.841Z,2.50
2023-05-06T12:28:01.067Z,2.40
2023-05-06T12:30:47.701Z,2.20
2023-05-06T12:33:48.877Z,2.30
2023-05-06T12:36:40.380Z,2.10
2023-05-06T12:39:34.621Z,2.20
2023-05-06T12:42:21.488Z,2.30
2023-05-06T12:45:14.882Z,2.00
2023-05-06T12:48:02.914Z,2.28
2023-05-06T12:50:50.334Z,2.50
2023-05-06T12:53:36.363Z,2.20
2023-05-06T12:56:22.972Z,2.20
2023-05-06T12:59:09.387Z,2.10
2023-05-06T13:01:55.632Z,2.20
2023-05-06T13:07:28.417Z,2.28
2023-05-06T13:10:14.617Z,2.20
2023-05-06T13:13:00.839Z,2.30
2023-05-06T13:15:47.327Z,2.30
2023-05-06T13:18:33.555Z,2.20
2023-05-06T13:21:20.733Z,2.50
2023-05-06T13:24:07.764Z,1.98
2023-05-06T13:26:53.889Z,1.98
2023-05-06T13:29:40.272Z,2.17
2023-05-06T13:32:27.174Z,2.10
2023-05-06T13:35:13.268Z,2.40
2023-05-06T13:37:59.668Z,2.10
2023-05-06T13:40:48.689Z,2.35
2023-05-06T13:43:34.631Z,2.40
2023-05-06T13:46:20.762Z,2.03
2023-05-06T13:49:06.833Z,2.00
2023-05-06T13:51:53.468Z,2.20
2023-05-06T13:54:39.797Z,2.05
2023-05-06T13:57:26.033Z,1.80
2023-05-06T14:00:12.929Z,1.90
2023-05-06T14:02:59.437Z,1.90
2023-05-06T14:05:46.174Z,1.80
2023-05-06T14:08:32.945Z,2.13
2023-05-06T14:11:18.884Z,1.60
2023-05-06T14:14:06.316Z,1.83
2023-05-06T14:16:54.459Z,1.70
2023-05-06T14:19:40.772Z,1.80
2023-05-06T14:22:28.853Z,1.70
2023-05-06T14:25:14.936Z,1.60
2023-05-06T14:28:01.310Z,1.77
2023-05-06T14:30:47.620Z,1.77
2023-05-06T14:36:20.257Z,1.85
2023-05-06T14:41:52.195Z,1.90
2023-05-06T14:44:38.118Z,1.77
2023-05-06T14:47:24.179Z,1.73
2023-05-06T14:50:11.015Z,2.00
2023-05-06T14:52:57.137Z,1.60
2023-05-06T14:55:45.175Z,1.60
2023-05-06T14:58:32.063Z,1.70
2023-05-06T15:01:18.179Z,1.60
2023-05-06T15:04:04.579Z,1.60
2023-05-06T15:06:51.246Z,1.80
2023-05-06T15:09:39.574Z,1.70
2023-05-06T15:12:26.167Z,1.60
2023-05-06T15:15:12.294Z,1.80
2023-05-06T15:17:58.652Z,1.73
2023-05-06T15:20:44.541Z,1.60
2023-05-06T15:23:30.900Z,1.73
2023-05-06T15:26:17.269Z,1.88
2023-05-06T15:29:03.180Z,1.60
2023-05-06T15:31:49.130Z,1.80
2023-05-06T15:34:35.895Z,1.77
2023-05-06T15:37:22.305Z,1.80
2023-05-06T15:40:12.007Z,1.65
2023-05-06T15:42:58.889Z,1.63
2023-05-06T15:45:45.083Z,1.70
2023-05-06T15:51:17.999Z,1.80
2023-05-06T15:54:04.374Z,1.80
2023-05-06T15:56:50.726Z,1.73
2023-05-06T15:59:36.992Z,1.70
2023-05-06T16:02:27.273Z,1.90
2023-05-06T16:05:13.876Z,1.70
2023-05-06T16:08:00.339Z,2.00
2023-05-06T16:10:46.683Z,1.90
2023-05-06T16:13:32.844Z,1.80
2023-05-06T16:16:19.088Z,1.70
2023-05-06T16:19:05.923Z,1.88
2023-05-06T16:24:39.301Z,1.77
2023-05-06T16:27:28.525Z,1.73
2023-05-06T16:30:14.970Z,1.98
2023-05-06T16:35:47.698Z,1.88
2023-05-06T16:38:33.471Z,2.08
2023-05-06T16:41:19.792Z,1.80
2023-05-06T16:44:06.060Z,2.08
2023-05-06T16:46:52.161Z,1.83
2023-05-06T16:52:24.318Z,1.98
2023-05-06T16:55:10.398Z,1.77
2023-05-06T17:00:42.849Z,1.98
2023-05-06T17:03:29.222Z,2.03
2023-05-06T17:06:15.386Z,1.70
2023-05-06T17:09:01.231Z,2.00
2023-05-06T17:11:47.162Z,1.70
2023-05-06T17:14:33.189Z,1.88
2023-05-06T17:17:21.439Z,1.75
2023-05-06T17:20:08.881Z,1.88
2023-05-06T17:22:55.131Z,1.85
2023-05-06T17:25:40.987Z,2.00
2023-05-06T17:28:27.015Z,4.00
2023-05-06T17:31:15.417Z,3.58
2023-05-06T17:34:01.622Z,3.53
2023-05-06T17:36:47.478Z,3.80
2023-05-06T17:39:33.557Z,4.30
2023-05-06T17:42:19.647Z,3.28
2023-05-06T17:45:06.287Z,2.88
2023-05-06T17:47:53.054Z,2.35
2023-05-06T17:50:39.463Z,2.42
2023-05-06T17:53:25.752Z,2.58
2023-05-06T17:56:11.991Z,2.10
2023-05-06T17:59:02.466Z,2.20
2023-05-06T18:01:48.822Z,1.90
2023-05-06T18:07:21.228Z,2.22
2023-05-06T18:12:55.525Z,2.00
2023-05-06T18:15:41.699Z,2.22
2023-05-06T18:18:27.775Z,2.30
2023-05-06T18:21:13.712Z,2.65
2023-05-06T18:24:10.100Z,2.30
2023-05-06T18:27:02.278Z,2.60
2023-05-06T18:29:48.557Z,2.88
2023-05-06T18:32:35.782Z,2.88
2023-05-06T18:35:21.787Z,2.25
2023-05-06T18:38:08.111Z,2.50
2023-05-06T18:43:40.381Z,3.42
2023-05-06T18:46:27.549Z,7.40
2023-05-06T18:49:14.382Z,6.00
2023-05-06T18:52:02.273Z,4.78
2023-05-06T18:54:48.392Z,3.80
2023-05-06T18:57:34.353Z,3.00
2023-05-06T19:00:22.505Z,3.40
2023-05-06T19:03:09.415Z,6.15
2023-05-06T19:05:56.969Z,4.88
2023-05-06T19:08:43.403Z,3.90
2023-05-06T19:11:29.576Z,3.60
2023-05-06T19:14:15.600Z,3.20
2023-05-06T19:17:03.499Z,3.30
2023-05-06T19:19:50.086Z,3.38
2023-05-06T19:25:22.753Z,2.80
2023-05-06T19:28:09.561Z,2.80
2023-05-06T19:30:55.848Z,3.30
2023-05-06T19:33:43.065Z,3.42
2023-05-06T19:36:29.048Z,2.80
2023-05-06T19:39:16.307Z,2.95
2023-05-06T19:42:02.603Z,3.42
2023-05-06T19:44:48.988Z,3.20
2023-05-06T19:47:35.350Z,3.55
2023-05-06T19:50:21.899Z,3.50
2023-05-06T19:55:59.203Z,3.30
2023-05-06T19:58:45.304Z,3.22
2023-05-06T20:01:31.585Z,3.53
2023-05-06T20:04:17.309Z,3.42
2023-05-06T20:07:03.263Z,3.78
2023-05-06T20:09:55.172Z,3.53
2023-05-06T20:12:41.633Z,4.47
2023-05-06T20:15:28.254Z,4.20
2023-05-06T20:18:14.571Z,4.13
2023-05-06T20:21:00.554Z,4.13
2023-05-06T20:23:46.377Z,4.28
2023-05-06T20:26:32.412Z,4.10
2023-05-06T20:29:18.403Z,3.95
2023-05-06T20:32:04.676Z,4.35
2023-05-06T20:37:38.234Z,3.88
2023-05-06T20:40:24.742Z,4.15
2023-05-06T20:43:11.012Z,4.05
2023-05-06T20:45:56.854Z,3.75
2023-05-06T20:48:42.826Z,3.67
2023-05-06T20:51:28.831Z,3.65
2023-05-06T20:54:14.769Z,3.88
2023-05-06T20:57:02.490Z,3.72
2023-05-06T20:59:51.116Z,3.90
2023-05-06T21:02:41.215Z,4.07
2023-05-06T21:05:27.900Z,3.80
2023-05-06T21:08:14.027Z,3.97
2023-05-06T21:11:00.304Z,4.18
2023-05-06T21:16:32.024Z,4.00
2023-05-06T21:19:18.001Z,4.35
2023-05-06T21:22:04.358Z,4.68
2023-05-06T21:24:51.057Z,4.10
2023-05-06T21:27:37.159Z,4.20
2023-05-06T21:30:23.030Z,4.60
2023-05-06T21:33:11.120Z,4.47
2023-05-06T21:35:57.336Z,4.63
2023-05-06T21:38:43.493Z,4.50
2023-05-06T21:41:29.836Z,4.90
2023-05-06T21:44:16.187Z,4.88
2023-05-06T21:47:02.002Z,4.63
2023-05-06T21:49:48.020Z,4.78
2023-05-06T21:52:33.909Z,4.78
2023-05-06T21:55:20.109Z,4.65
2023-05-06T21:58:06.654Z,4.47
2023-05-06T22:00:52.884Z,4.93
2023-05-06T22:03:39.046Z,4.90
2023-05-06T22:06:25.600Z,4.85
2023-05-06T22:09:11.932Z,4.93
2023-05-06T22:11:58.031Z,4.57
2023-05-06T22:14:43.969Z,5.10
2023-05-06T22:17:30.857Z,4.55
2023-05-06T22:20:17.530Z,4.43
2023-05-06T22:23:03.818Z,4.57
2023-05-06T22:25:51.902Z,4.40
2023-05-06T22:28:38.250Z,5.28
2023-05-06T22:31:24.890Z,4.63
2023-05-06T22:34:11.416Z,4.30
2023-05-06T22:36:59.741Z,4.57
2023-05-06T22:39:47.580Z,5.05
2023-05-06T22:42:33.716Z,4.65
2023-05-06T22:45:19.873Z,5.00
2023-05-06T22:48:06.263Z,5.13
2023-05-06T22:50:52.796Z,5.20
2023-05-06T22:53:38.973Z,5.35
2023-05-06T22:56:24.799Z,5.30
2023-05-06T22:59:10.686Z,5.93
2023-05-06T23:01:56.891Z,5.68
2023-05-06T23:04:42.818Z,5.15
2023-05-06T23:07:28.764Z,4.82
2023-05-06T23:10:14.750Z,4.40
2023-05-06T23:13:03.986Z,4.82
2023-05-06T23:15:50.846Z,4.75
2023-05-06T23:18:37.306Z,5.25
2023-05-06T23:21:23.490Z,5.43
2023-05-06T23:24:10.043Z,5.47
2023-05-06T23:29:42.412Z,4.80
2023-05-06T23:32:28.413Z,5.05
2023-05-06T23:35:14.288Z,4.72
2023-05-06T23:38:00.151Z,4.88
2023-05-06T23:40:46.339Z,5.18
2023-05-06T23:43:32.363Z,5.47
2023-05-06T23:46:18.286Z,5.32
2023-05-06T23:49:05.835Z,5.80
2023-05-06T23:51:52.085Z,5.30
2023-05-06T23:57:25.379Z,5.07
